createdAt,value
2023-04-15T00:01:02.741Z,3.28
2023-04-15T00:03:30.247Z,2.40
2023-04-15T00:05:58.072Z,2.13
2023-04-15T00:08:25.612Z,3.15
2023-04-15T00:10:54.242Z,1.92
2023-04-15T00:13:21.201Z,1.65
2023-04-15T00:15:48.196Z,1.83
2023-04-15T00:18:15.233Z,4.88
2023-04-15T00:20:42.451Z,1.50
2023-04-15T00:23:09.493Z,1.33
2023-04-15T00:25:36.766Z,3.03
2023-04-15T00:28:05.334Z,3.08
2023-04-15T00:30:32.485Z,2.17
2023-04-15T00:32:59.649Z,2.70
2023-04-15T00:35:26.688Z,3.10
2023-04-15T00:37:53.996Z,4.32
2023-04-15T00:40:21.914Z,3.80
2023-04-15T00:42:49.949Z,3.13
2023-04-15T00:45:19.093Z,3.28
2023-04-15T00:47:46.342Z,5.22
2023-04-15T00:50:13.317Z,3.72
2023-04-15T00:52:40.905Z,3.15
2023-04-15T00:55:09.690Z,3.15
2023-04-15T00:57:37.079Z,5.22
2023-04-15T01:00:05.765Z,3.15
2023-04-15T01:05:02.371Z,2.45
2023-04-15T01:07:29.457Z,3.83
2023-04-15T01:09:56.935Z,4.68
2023-04-15T01:12:25.483Z,3.38
2023-04-15T01:14:52.910Z,3.33
2023-04-15T01:19:49.632Z,3.72
2023-04-15T01:24:46.693Z,2.45
2023-04-15T01:27:15.928Z,2.55
2023-04-15T01:29:43.148Z,4.55
2023-04-15T01:32:10.136Z,2.85
2023-04-15T01:34:37.086Z,2.13
2023-04-15T01:37:04.043Z,3.35
2023-04-15T01:39:31.146Z,4.25
2023-04-15T01:41:58.212Z,3.58
2023-04-15T01:44:26.730Z,2.65
2023-04-15T01:46:53.702Z,2.78
2023-04-15T01:49:20.820Z,2.15
2023-04-15T01:51:48.127Z,3.33
2023-04-15T01:54:15.093Z,2.70
2023-04-15T01:56:42.377Z,3.95
2023-04-15T01:59:09.983Z,2.13
2023-04-15T02:01:39.791Z,3.70
2023-04-15T02:04:07.448Z,2.60
2023-04-15T02:06:34.483Z,2.47
2023-04-15T02:09:01.757Z,1.40
2023-04-15T02:11:29.084Z,4.10
2023-04-15T02:13:56.965Z,2.13
2023-04-15T02:16:26.142Z,2.83
2023-04-15T02:18:54.533Z,3.53
2023-04-15T02:21:21.668Z,4.65
2023-04-15T02:23:48.888Z,2.97
2023-04-15T02:26:15.958Z,2.38
2023-04-15T02:28:43.082Z,3.33
2023-04-15T02:31:10.160Z,3.40
2023-04-15T02:33:37.902Z,1.58
2023-04-15T02:36:07.634Z,3.20
2023-04-15T02:38:34.648Z,3.20
2023-04-15T02:41:01.710Z,2.00
2023-04-15T02:43:28.789Z,3.13
2023-04-15T02:45:55.946Z,2.42
2023-04-15T02:48:23.015Z,4.53
2023-04-15T02:50:49.955Z,1.58
2023-04-15T02:53:20.113Z,4.18
2023-04-15T02:55:47.188Z,1.58
2023-04-15T02:58:14.572Z,2.05
2023-04-15T03:00:41.915Z,2.30
2023-04-15T03:03:09.160Z,3.08
2023-04-15T03:05:38.992Z,3.50
2023-04-15T03:08:06.709Z,1.50
2023-04-15T03:10:35.053Z,1.98
2023-04-15T03:13:02.258Z,1.50
2023-04-15T03:15:29.508Z,5.13
2023-04-15T03:17:56.651Z,3.70
2023-04-15T03:20:24.139Z,2.60
2023-04-15T03:22:51.724Z,3.25
2023-04-15T03:27:48.843Z,5.13
2023-04-15T03:30:17.265Z,3.28
2023-04-15T03:32:44.360Z,2.33
2023-04-15T03:35:11.400Z,3.85
2023-04-15T03:37:38.346Z,3.67
2023-04-15T03:40:06.349Z,4.15
2023-04-15T03:42:33.319Z,5.18
2023-04-15T03:45:01.725Z,4.25
2023-04-15T03:47:28.726Z,3.72
2023-04-15T03:49:55.767Z,2.75
2023-04-15T03:52:22.743Z,3.60
2023-04-15T03:54:49.956Z,7.18
2023-04-15T03:57:16.852Z,4.57
2023-04-15T03:59:44.006Z,4.38
2023-04-15T04:02:12.401Z,4.50
2023-04-15T04:04:39.573Z,6.50
2023-04-15T04:07:06.620Z,4.18
2023-04-15T04:09:33.594Z,3.33
2023-04-15T04:12:01.342Z,2.70
2023-04-15T04:14:29.911Z,2.50
2023-04-15T04:16:57.620Z,3.47
2023-04-15T04:19:26.334Z,2.53
2023-04-15T04:21:53.426Z,3.75
2023-04-15T04:24:20.665Z,4.60
2023-04-15T04:26:47.942Z,3.00
2023-04-15T04:29:14.922Z,5.78
2023-04-15T04:31:41.988Z,7.63
2023-04-15T04:34:08.973Z,8.73
2023-04-15T04:36:37.336Z,5.47
2023-04-15T04:39:04.291Z,7.07
2023-04-15T04:41:32.369Z,6.50
2023-04-15T04:43:59.483Z,5.80
2023-04-15T04:46:26.596Z,5.72
2023-04-15T04:48:53.478Z,5.95
2023-04-15T04:51:20.892Z,5.45
2023-04-15T04:53:49.300Z,5.38
2023-04-15T04:56:16.443Z,5.82
2023-04-15T04:58:46.835Z,5.32
2023-04-15T05:01:13.881Z,6.28
2023-04-15T05:03:41.054Z,6.88
2023-04-15T05:06:08.936Z,7.60
2023-04-15T05:08:36.711Z,5.32
2023-04-15T05:11:06.239Z,6.07
2023-04-15T05:13:33.290Z,6.97
2023-04-15T05:16:00.286Z,7.60
2023-04-15T05:18:27.446Z,6.95
2023-04-15T05:20:54.408Z,7.07
2023-04-15T05:23:21.396Z,7.63
2023-04-15T05:25:48.367Z,6.78
2023-04-15T05:28:17.085Z,4.30
2023-04-15T05:30:44.092Z,8.65
2023-04-15T05:33:11.160Z,3.78
2023-04-15T05:35:38.161Z,6.43
2023-04-15T05:38:05.207Z,6.60
2023-04-15T05:40:32.145Z,8.75
2023-04-15T05:42:59.180Z,5.10
2023-04-15T05:45:27.656Z,6.80
2023-04-15T05:47:54.701Z,5.57
2023-04-15T05:50:21.794Z,7.47
2023-04-15T05:52:48.891Z,7.78
2023-04-15T05:55:16.245Z,6.00
2023-04-15T05:57:43.162Z,8.23
2023-04-15T06:00:11.415Z,5.85
2023-04-15T06:02:40.001Z,6.75
2023-04-15T06:05:09.997Z,7.00
2023-04-15T06:07:37.181Z,3.47
2023-04-15T06:10:04.933Z,4.22
2023-04-15T06:12:32.042Z,6.38
2023-04-15T06:15:00.127Z,3.72
2023-04-15T06:17:27.621Z,3.50
2023-04-15T06:19:56.262Z,5.05
2023-04-15T06:22:23.508Z,4.28
2023-04-15T06:24:51.642Z,3.50
2023-04-15T06:27:19.115Z,4.03
2023-04-15T06:29:46.318Z,7.60
2023-04-15T06:32:13.527Z,4.20
2023-04-15T06:34:40.771Z,4.88
2023-04-15T06:37:11.189Z,3.72
2023-04-15T06:39:38.400Z,5.93
2023-04-15T06:42:05.429Z,3.38
2023-04-15T06:44:33.906Z,4.63
2023-04-15T06:47:01.348Z,4.68
2023-04-15T06:49:28.440Z,5.35
2023-04-15T06:51:55.674Z,3.70
2023-04-15T06:54:24.196Z,3.40
2023-04-15T06:59:19.060Z,3.85
2023-04-15T07:01:46.562Z,3.83
2023-04-15T07:04:13.604Z,4.55
2023-04-15T07:06:41.902Z,4.38
2023-04-15T07:09:09.047Z,3.80
2023-04-15T07:11:37.375Z,5.30
2023-04-15T07:16:31.250Z,3.35
2023-04-15T07:18:58.397Z,2.83
2023-04-15T07:21:25.772Z,4.50
2023-04-15T07:23:52.767Z,3.03
2023-04-15T07:26:19.773Z,4.57
2023-04-15T07:28:48.250Z,4.07
2023-04-15T07:31:16.580Z,3.30
2023-04-15T07:33:46.218Z,4.53
2023-04-15T07:36:13.550Z,3.88
2023-04-15T07:38:40.507Z,4.07
2023-04-15T07:41:07.666Z,3.05
2023-04-15T07:43:34.617Z,4.30
2023-04-15T07:46:02.970Z,3.47
2023-04-15T07:48:30.116Z,6.45
2023-04-15T07:50:57.022Z,4.40
2023-04-15T07:53:24.112Z,4.78
2023-04-15T07:55:51.031Z,5.20
2023-04-15T07:58:18.017Z,4.57
2023-04-15T08:00:45.309Z,4.22
2023-04-15T08:03:13.765Z,2.95
2023-04-15T08:05:41.092Z,2.97
2023-04-15T08:08:08.516Z,3.25
2023-04-15T08:10:35.719Z,3.83
2023-04-15T08:13:02.861Z,3.00
2023-04-15T08:15:29.840Z,2.47
2023-04-15T08:17:56.816Z,2.50
2023-04-15T08:20:25.398Z,3.72
2023-04-15T08:22:52.718Z,4.75
2023-04-15T08:25:22.672Z,4.55
2023-04-15T08:27:49.773Z,3.15
2023-04-15T08:30:16.901Z,5.32
2023-04-15T08:32:47.096Z,3.15
2023-04-15T08:35:14.559Z,3.08
2023-04-15T08:37:42.976Z,2.75
2023-04-15T08:40:11.680Z,5.28
2023-04-15T08:42:45.827Z,2.42
2023-04-15T08:45:13.342Z,2.45
2023-04-15T08:47:40.777Z,4.15
2023-04-15T08:50:09.976Z,2.03
2023-04-15T08:52:37.333Z,2.63
2023-04-15T08:55:08.505Z,1.10
2023-04-15T08:57:36.199Z,3.10
2023-04-15T09:00:05.683Z,2.30
2023-04-15T09:02:33.173Z,3.33
2023-04-15T09:05:00.997Z,2.92
2023-04-15T09:07:28.035Z,6.13
2023-04-15T09:09:54.956Z,3.75
2023-04-15T09:12:23.252Z,1.48
2023-04-15T09:14:50.354Z,1.30
2023-04-15T09:17:19.781Z,0.68
2023-04-15T09:19:46.825Z,1.65
2023-04-15T09:22:14.482Z,2.17
2023-04-15T09:24:43.410Z,3.65
2023-04-15T09:27:11.301Z,3.13
2023-04-15T09:29:41.791Z,4.13
2023-04-15T09:32:13.298Z,2.45
2023-04-15T09:34:40.641Z,3.28
2023-04-15T09:37:08.116Z,2.97
2023-04-15T09:39:48.916Z,1.65
2023-04-15T09:42:17.190Z,1.55
2023-04-15T09:44:45.574Z,1.75
2023-04-15T09:47:27.796Z,0.50
2023-04-15T09:49:58.589Z,1.33
2023-04-15T09:52:26.141Z,0.25
2023-04-15T09:54:55.469Z,1.55
2023-04-15T09:57:23.714Z,0.70
2023-04-15T09:59:52.527Z,0.73
2023-04-15T10:02:21.424Z,0.88
2023-04-15T10:04:49.662Z,1.35
2023-04-15T10:09:47.017Z,1.13
2023-04-15T10:12:15.147Z,0.52
2023-04-15T10:17:12.727Z,2.28
2023-04-15T10:19:40.754Z,2.53
2023-04-15T10:24:34.679Z,1.60
2023-04-15T10:27:03.819Z,1.10
2023-04-15T10:29:30.768Z,2.00
2023-04-15T10:31:59.268Z,1.73
2023-04-15T10:34:28.090Z,0.40
2023-04-15T10:36:56.614Z,2.28
2023-04-15T10:39:42.969Z,1.42
2023-04-15T10:42:11.307Z,1.67
2023-04-15T10:44:39.099Z,0.60
2023-04-15T10:47:10.886Z,0.60
2023-04-15T10:49:45.134Z,1.63
2023-04-15T10:52:12.771Z,0.95
2023-04-15T10:54:39.947Z,1.67
2023-04-15T10:57:15.112Z,1.35
2023-04-15T11:00:13.068Z,2.05
2023-04-15T11:02:47.366Z,1.65
2023-04-15T11:05:16.935Z,0.57
2023-04-15T11:07:52.198Z,0.10
2023-04-15T11:10:52.960Z,0.50
2023-04-15T11:13:27.219Z,0.20
2023-04-15T11:15:58.458Z,3.15
2023-04-15T11:18:28.251Z,0.40
2023-04-15T11:20:57.690Z,0.63
2023-04-15T11:23:29.663Z,3.13
2023-04-15T11:25:58.020Z,0.68
2023-04-15T11:28:26.527Z,0.93
2023-04-15T11:30:55.646Z,1.65
2023-04-15T11:33:23.894Z,1.90
2023-04-15T11:36:09.454Z,0.47
2023-04-15T11:38:38.242Z,0.50
2023-04-15T11:41:05.194Z,1.05
2023-04-15T11:43:32.546Z,0.95
2023-04-15T11:46:01.370Z,0.52
2023-04-15T11:48:30.829Z,0.17
2023-04-15T11:51:01.407Z,0.40
2023-04-15T11:53:39.491Z,2.08
2023-04-15T11:56:07.837Z,1.35
2023-04-15T11:58:35.534Z,2.00
2023-04-15T12:01:03.033Z,1.25
2023-04-15T12:03:31.676Z,0.40
2023-04-15T12:06:15.041Z,1.50
2023-04-15T12:08:58.540Z,0.60
2023-04-15T12:11:44.469Z,1.05
2023-04-15T12:14:13.953Z,0.75
2023-04-15T12:16:49.075Z,1.70
2023-04-15T12:19:19.484Z,1.25
2023-04-15T12:21:48.258Z,0.70
2023-04-15T12:24:21.207Z,0.73
2023-04-15T12:26:50.068Z,0.35
2023-04-15T12:29:17.928Z,1.30
2023-04-15T12:31:52.963Z,0.63
2023-04-15T12:34:27.096Z,0.85
2023-04-15T12:36:54.255Z,0.82
2023-04-15T12:39:24.401Z,0.85
2023-04-15T12:41:51.688Z,1.00
2023-04-15T12:44:18.931Z,1.50
2023-04-15T12:46:46.291Z,0.70
2023-04-15T12:49:14.939Z,0.82
2023-04-15T12:51:42.129Z,0.75
2023-04-15T12:54:09.192Z,0.75
2023-04-15T12:56:37.585Z,0.57
2023-04-15T12:59:04.932Z,0.90
2023-04-15T13:01:31.925Z,0.50
2023-04-15T13:03:59.213Z,1.40
2023-04-15T13:06:26.317Z,0.75
2023-04-15T13:08:58.498Z,1.40
2023-04-15T13:11:26.076Z,0.88
2023-04-15T13:13:54.500Z,1.33
2023-04-15T13:16:22.049Z,0.63
2023-04-15T13:18:49.219Z,1.27
2023-04-15T13:21:17.000Z,0.60
2023-04-15T13:23:46.630Z,1.65
2023-04-15T13:26:13.560Z,0.95
2023-04-15T13:28:40.571Z,0.90
2023-04-15T13:31:09.034Z,1.35
2023-04-15T13:33:36.537Z,0.95
2023-04-15T13:36:03.632Z,0.35
2023-04-15T13:38:30.599Z,0.75
2023-04-15T13:40:57.643Z,0.20
2023-04-15T13:43:24.635Z,0.88
2023-04-15T13:45:51.990Z,0.73
2023-04-15T13:48:20.381Z,0.63
2023-04-15T13:50:47.311Z,2.38
2023-04-15T13:53:14.316Z,1.08
2023-04-15T13:55:42.763Z,1.52
2023-04-15T13:58:09.979Z,0.45
2023-04-15T14:00:37.106Z,3.00
2023-04-15T14:03:04.386Z,1.40
2023-04-15T14:05:33.263Z,0.95
2023-04-15T14:08:02.117Z,0.70
2023-04-15T14:10:29.381Z,1.95
2023-04-15T14:12:56.373Z,0.55
2023-04-15T14:15:23.408Z,1.33
2023-04-15T14:17:50.552Z,0.63
2023-04-15T14:20:17.740Z,0.45
2023-04-15T14:22:46.339Z,0.10
2023-04-15T14:25:23.033Z,2.72
2023-04-15T14:27:57.681Z,0.45
2023-04-15T14:30:24.664Z,0.70
2023-04-15T14:32:51.602Z,1.42
2023-04-15T14:35:18.698Z,1.75
2023-04-15T14:37:47.000Z,1.00
2023-04-15T14:40:14.063Z,0.70
2023-04-15T14:42:41.169Z,1.80
2023-04-15T14:45:09.552Z,0.63
2023-04-15T14:47:36.707Z,0.75
2023-04-15T14:50:04.035Z,0.57
2023-04-15T14:52:32.306Z,0.40
2023-04-15T14:55:00.881Z,0.50
2023-04-15T14:57:27.834Z,1.05
2023-04-15T14:59:56.734Z,0.40
2023-04-15T15:02:37.367Z,1.00
2023-04-15T15:05:05.628Z,0.63
2023-04-15T15:07:32.743Z,0.32
2023-04-15T15:10:01.163Z,1.35
2023-04-15T15:12:28.187Z,2.67
2023-04-15T15:14:55.547Z,1.73
2023-04-15T15:17:22.692Z,1.67
2023-04-15T15:19:49.809Z,0.90
2023-04-15T15:22:17.632Z,0.85
2023-04-15T15:24:45.898Z,1.63
2023-04-15T15:27:14.252Z,1.27
2023-04-15T15:29:41.384Z,0.98
2023-04-15T15:32:08.397Z,1.15
2023-04-15T15:34:35.345Z,0.77
2023-04-15T15:37:02.366Z,3.30
2023-04-15T15:39:29.375Z,1.33
2023-04-15T15:41:56.532Z,0.93
2023-04-15T15:44:24.966Z,2.65
2023-04-15T15:46:52.050Z,4.28
2023-04-15T15:49:19.803Z,0.52
2023-04-15T15:51:46.851Z,1.42
2023-04-15T15:54:13.861Z,1.63
2023-04-15T15:56:42.161Z,0.85
2023-04-15T15:59:09.160Z,0.65
2023-04-15T16:01:37.596Z,2.08
2023-04-15T16:04:04.684Z,1.05
2023-04-15T16:06:34.446Z,0.60
2023-04-15T16:09:02.346Z,1.58
2023-04-15T16:11:29.489Z,1.65
2023-04-15T16:13:56.555Z,0.90
2023-04-15T16:16:24.336Z,1.55
2023-04-15T16:18:52.782Z,1.00
2023-04-15T16:21:20.373Z,2.58
2023-04-15T16:23:47.484Z,1.38
2023-04-15T16:26:14.472Z,0.52
2023-04-15T16:28:41.639Z,1.42
2023-04-15T16:31:08.731Z,1.13
2023-04-15T16:33:35.766Z,0.43
2023-04-15T16:36:04.867Z,1.27
2023-04-15T16:38:31.997Z,0.60
2023-04-15T16:41:00.828Z,3.00
2023-04-15T16:43:28.060Z,1.27
2023-04-15T16:45:55.233Z,0.52
2023-04-15T16:48:22.275Z,0.50
2023-04-15T16:50:49.452Z,1.80
2023-04-15T16:53:17.868Z,1.15
2023-04-15T16:55:44.880Z,3.78
2023-04-15T16:58:11.950Z,2.78
2023-04-15T17:00:38.986Z,3.33
2023-04-15T17:03:06.472Z,2.00
2023-04-15T17:05:33.736Z,1.55
2023-04-15T17:08:00.757Z,5.75
2023-04-15T17:10:29.235Z,3.58
2023-04-15T17:12:56.858Z,4.43
2023-04-15T17:15:23.995Z,2.10
2023-04-15T17:17:51.075Z,3.28
2023-04-15T17:20:18.446Z,4.28
2023-04-15T17:22:45.803Z,3.50
2023-04-15T17:25:13.580Z,3.38
2023-04-15T17:27:41.989Z,7.18
2023-04-15T17:30:09.834Z,3.70
2023-04-15T17:32:37.289Z,3.80
2023-04-15T17:35:06.567Z,5.80
2023-04-15T17:37:33.879Z,4.95
2023-04-15T17:40:00.944Z,5.65
2023-04-15T17:42:27.919Z,4.85
2023-04-15T17:44:56.375Z,3.47
2023-04-15T17:47:23.627Z,5.22
2023-04-15T17:49:50.603Z,4.85
2023-04-15T17:52:17.659Z,3.78
2023-04-15T17:54:45.837Z,5.80
2023-04-15T17:57:12.773Z,7.75
2023-04-15T17:59:43.961Z,6.70
2023-04-15T18:02:12.653Z,5.35
2023-04-15T18:04:39.890Z,3.83
2023-04-15T18:07:07.007Z,5.18
2023-04-15T18:09:34.096Z,5.68
2023-04-15T18:12:02.176Z,6.53
2023-04-15T18:14:34.616Z,4.80
2023-04-15T18:17:02.452Z,5.55
2023-04-15T18:19:31.780Z,4.38
2023-04-15T18:22:00.233Z,3.63
2023-04-15T18:24:27.810Z,4.32
2023-04-15T18:26:54.849Z,4.60
2023-04-15T18:29:22.047Z,5.47
2023-04-15T18:31:49.146Z,4.25
2023-04-15T18:34:16.179Z,3.13
2023-04-15T18:36:44.507Z,3.58
2023-04-15T18:41:38.349Z,3.22
2023-04-15T18:44:05.536Z,3.72
2023-04-15T18:46:32.484Z,5.60
2023-04-15T18:48:59.506Z,4.60
2023-04-15T18:51:27.462Z,3.97
2023-04-15T18:53:56.056Z,4.35
2023-04-15T18:59:08.863Z,3.47
2023-04-15T19:01:36.848Z,2.90
2023-04-15T19:04:04.029Z,2.75
2023-04-15T19:06:31.171Z,4.03
2023-04-15T19:08:59.617Z,2.45
2023-04-15T19:13:53.440Z,2.58
2023-04-15T19:16:20.537Z,2.55
2023-04-15T19:18:47.533Z,3.40
2023-04-15T19:21:14.593Z,2.45
2023-04-15T19:23:43.053Z,3.50
2023-04-15T19:26:11.931Z,2.17
2023-04-15T19:28:39.022Z,4.22
2023-04-15T19:31:06.131Z,1.48
2023-04-15T19:33:33.194Z,3.13
2023-04-15T19:36:01.559Z,1.80
2023-04-15T19:40:55.298Z,3.05
2023-04-15T19:43:23.827Z,2.35
2023-04-15T19:45:53.110Z,1.52
2023-04-15T19:48:20.160Z,1.52
2023-04-15T19:50:47.180Z,3.95
2023-04-15T19:53:14.344Z,6.15
2023-04-15T19:55:41.601Z,4.82
2023-04-15T19:58:08.528Z,4.45
2023-04-15T20:00:36.913Z,3.55
2023-04-15T20:05:30.893Z,7.85
2023-04-15T20:07:59.829Z,5.93
2023-04-15T20:10:27.267Z,8.93
2023-04-15T20:12:54.273Z,9.02
2023-04-15T20:15:23.482Z,5.53
2023-04-15T20:17:52.293Z,4.90
2023-04-15T20:20:19.822Z,5.32
2023-04-15T20:22:46.945Z,3.72
2023-04-15T20:25:14.074Z,4.35
2023-04-15T20:27:41.112Z,4.00
2023-04-15T20:30:09.030Z,4.22
2023-04-15T20:32:36.510Z,3.65
2023-04-15T20:35:05.909Z,4.85
2023-04-15T20:37:33.620Z,4.55
2023-04-15T20:40:01.636Z,3.60
2023-04-15T20:42:32.552Z,3.22
2023-04-15T20:44:59.711Z,2.92
2023-04-15T20:47:26.820Z,4.10
2023-04-15T20:49:54.314Z,4.05
2023-04-15T20:52:22.664Z,2.20
2023-04-15T20:54:50.075Z,5.15
2023-04-15T20:57:17.310Z,4.25
2023-04-15T20:59:44.271Z,5.13
2023-04-15T21:02:11.629Z,4.95
2023-04-15T21:04:38.948Z,5.25
2023-04-15T21:07:06.035Z,5.13
2023-04-15T21:09:34.555Z,3.42
2023-04-15T21:12:02.297Z,5.88
2023-04-15T21:14:29.516Z,5.13
2023-04-15T21:16:57.014Z,4.60
2023-04-15T21:19:23.997Z,5.47
2023-04-15T21:21:51.052Z,5.13
2023-04-15T21:24:17.969Z,5.18
2023-04-15T21:26:46.356Z,7.60
2023-04-15T21:29:13.840Z,4.20
2023-04-15T21:31:41.077Z,3.78
2023-04-15T21:34:08.417Z,3.30
2023-04-15T21:36:35.372Z,2.47
2023-04-15T21:39:02.465Z,5.10
2023-04-15T21:41:29.683Z,4.75
2023-04-15T21:43:58.132Z,2.47
2023-04-15T21:46:32.749Z,3.75
2023-04-15T21:49:00.543Z,3.38
2023-04-15T21:51:27.800Z,6.47
2023-04-15T21:53:54.911Z,9.75
2023-04-15T21:56:24.397Z,10.20
2023-04-15T21:58:54.924Z,12.32
2023-04-15T22:01:23.631Z,17.13
2023-04-15T22:03:51.129Z,18.52
2023-04-15T22:06:18.564Z,12.95
2023-04-15T22:08:56.225Z,9.90
2023-04-15T22:11:32.507Z,7.78
2023-04-15T22:13:59.762Z,9.70
2023-04-15T22:16:28.638Z,5.68
2023-04-15T22:18:56.147Z,5.80
2023-04-15T22:21:23.396Z,6.53
2023-04-15T22:23:51.301Z,5.63
2023-04-15T22:26:18.266Z,5.40
2023-04-15T22:28:45.362Z,8.43
2023-04-15T22:31:12.392Z,10.85
2023-04-15T22:33:40.784Z,14.00
2023-04-15T22:36:07.901Z,9.27
2023-04-15T22:38:34.900Z,8.00
2023-04-15T22:41:01.916Z,8.23
2023-04-15T22:43:28.945Z,9.98
2023-04-15T22:45:56.630Z,10.05
2023-04-15T22:48:23.818Z,7.70
2023-04-15T22:50:52.177Z,5.78
2023-04-15T22:53:19.331Z,3.08
2023-04-15T22:55:46.786Z,3.67
2023-04-15T22:58:14.030Z,4.10
2023-04-15T23:00:41.151Z,4.40
2023-04-15T23:03:08.383Z,2.60
2023-04-15T23:05:35.552Z,5.93
2023-04-15T23:08:03.932Z,5.32
2023-04-15T23:12:57.690Z,3.83
2023-04-15T23:15:24.646Z,2.97
2023-04-15T23:17:51.794Z,4.88
2023-04-15T23:20:18.742Z,3.30
2023-04-15T23:22:45.851Z,2.58
2023-04-15T23:25:14.251Z,2.92
2023-04-15T23:27:41.220Z,2.88
2023-04-15T23:30:08.918Z,2.92
2023-04-15T23:32:35.996Z,3.65
2023-04-15T23:35:03.332Z,3.05
2023-04-15T23:37:31.416Z,4.85
2023-04-15T23:39:58.393Z,3.65
2023-04-15T23:42:27.184Z,4.63
2023-04-15T23:44:54.111Z,5.28
2023-04-15T23:47:21.496Z,7.95
2023-04-15T23:49:48.519Z,8.07
2023-04-15T23:52:15.485Z,2.50
2023-04-15T23:54:42.535Z,4.22
2023-04-15T23:57:09.590Z,2.95
2023-04-15T23:59:37.896Z,4.55
